sensor_id;sensor_type;location;lat;lon;timestamp;P1;durP1;ratioP1;P2;durP2;ratioP2
49614;SDS011;35517;45.272;9.984;2022-09-13T00:00:13;15.43;;;13.82;;
49614;SDS011;35517;45.272;9.984;2022-09-13T00:02:40;17.40;;;13.55;;
49614;SDS011;35517;45.272;9.984;2022-09-13T00:05:06;14.50;;;13.10;;
49614;SDS011;35517;45.272;9.984;2022-09-13T00:07:33;21.60;;;13.90;;
49614;SDS011;35517;45.272;9.984;2022-09-13T00:09:59;19.50;;;13.23;;
49614;SDS011;35517;45.272;9.984;2022-09-13T00:12:26;21.85;;;13.70;;
49614;SDS011;35517;45.272;9.984;2022-09-13T00:14:53;16.05;;;12.93;;
49614;SDS011;35517;45.272;9.984;2022-09-13T00:17:19;14.75;;;12.05;;
49614;SDS011;35517;45.272;9.984;2022-09-13T00:19:46;20.33;;;12.85;;
49614;SDS011;35517;45.272;9.984;2022-09-13T00:22:12;13.27;;;11.73;;
49614;SDS011;35517;45.272;9.984;2022-09-13T00:24:39;19.05;;;13.07;;
49614;SDS011;35517;45.272;9.984;2022-09-13T00:27:06;20.50;;;12.90;;
49614;SDS011;35517;45.272;9.984;2022-09-13T00:29:32;13.55;;;11.90;;
49614;SDS011;35517;45.272;9.984;2022-09-13T00:31:59;14.23;;;12.50;;
49614;SDS011;35517;45.272;9.984;2022-09-13T00:34:25;14.82;;;11.90;;
49614;SDS011;35517;45.272;9.984;2022-09-13T00:36:52;18.15;;;13.07;;
49614;SDS011;35517;45.272;9.984;2022-09-13T00:39:18;17.92;;;11.82;;
49614;SDS011;35517;45.272;9.984;2022-09-13T00:41:45;16.00;;;10.93;;
49614;SDS011;35517;45.272;9.984;2022-09-13T00:46:57;11.48;;;10.32;;
49614;SDS011;35517;45.272;9.984;2022-09-13T00:49:34;11.77;;;10.68;;
49614;SDS011;35517;45.272;9.984;2022-09-13T00:52:03;13.55;;;10.95;;
49614;SDS011;35517;45.272;9.984;2022-09-13T00:54:36;20.27;;;12.27;;
49614;SDS011;35517;45.272;9.984;2022-09-13T00:57:05;16.92;;;10.82;;
49614;SDS011;35517;45.272;9.984;2022-09-13T00:59:43;12.90;;;11.00;;
49614;SDS011;35517;45.272;9.984;2022-09-13T01:02:12;18.88;;;11.43;;
49614;SDS011;35517;45.272;9.984;2022-09-13T01:04:39;11.80;;;10.43;;
49614;SDS011;35517;45.272;9.984;2022-09-13T01:07:07;13.50;;;11.00;;
49614;SDS011;35517;45.272;9.984;2022-09-13T01:09:34;12.15;;;10.15;;
49614;SDS011;35517;45.272;9.984;2022-09-13T01:14:33;13.52;;;10.20;;
49614;SDS011;35517;45.272;9.984;2022-09-13T01:17:00;12.45;;;10.55;;
49614;SDS011;35517;45.272;9.984;2022-09-13T01:19:26;10.80;;;9.35;;
49614;SDS011;35517;45.272;9.984;2022-09-13T01:35:26;12.43;;;9.35;;
49614;SDS011;35517;45.272;9.984;2022-09-13T01:52:07;19.60;;;10.07;;
49614;SDS011;35517;45.272;9.984;2022-09-13T01:59:15;13.10;;;10.50;;
49614;SDS011;35517;45.272;9.984;2022-09-13T02:01:54;12.13;;;10.80;;
49614;SDS011;35517;45.272;9.984;2022-09-13T02:04:23;10.48;;;9.48;;
49614;SDS011;35517;45.272;9.984;2022-09-13T02:06:58;12.00;;;10.75;;
49614;SDS011;35517;45.272;9.984;2022-09-13T02:09:26;14.15;;;10.00;;
49614;SDS011;35517;45.272;9.984;2022-09-13T02:11:55;13.07;;;10.35;;
49614;SDS011;35517;45.272;9.984;2022-09-13T02:14:26;12.32;;;10.15;;
49614;SDS011;35517;45.272;9.984;2022-09-13T02:21:58;18.73;;;10.02;;
49614;SDS011;35517;45.272;9.984;2022-09-13T02:24:30;14.45;;;10.20;;
49614;SDS011;35517;45.272;9.984;2022-09-13T02:26:58;12.00;;;10.53;;
49614;SDS011;35517;45.272;9.984;2022-09-13T02:29:27;13.63;;;12.18;;
49614;SDS011;35517;45.272;9.984;2022-09-13T02:32:01;16.38;;;12.20;;
49614;SDS011;35517;45.272;9.984;2022-09-13T02:34:37;15.50;;;11.65;;
49614;SDS011;35517;45.272;9.984;2022-09-13T02:37:04;14.45;;;12.57;;
49614;SDS011;35517;45.272;9.984;2022-09-13T02:39:33;18.70;;;13.40;;
49614;SDS011;35517;45.272;9.984;2022-09-13T02:42:09;20.65;;;13.32;;
49614;SDS011;35517;45.272;9.984;2022-09-13T02:44:39;16.17;;;13.55;;
49614;SDS011;35517;45.272;9.984;2022-09-13T02:47:13;15.90;;;13.68;;
49614;SDS011;35517;45.272;9.984;2022-09-13T02:49:48;26.27;;;14.25;;
49614;SDS011;35517;45.272;9.984;2022-09-13T02:52:22;16.60;;;12.02;;
49614;SDS011;35517;45.272;9.984;2022-09-13T02:57:34;17.52;;;12.85;;
49614;SDS011;35517;45.272;9.984;2022-09-13T03:00:02;21.00;;;14.45;;
49614;SDS011;35517;45.272;9.984;2022-09-13T03:02:32;14.88;;;13.32;;
49614;SDS011;35517;45.272;9.984;2022-09-13T03:04:59;15.98;;;13.65;;
49614;SDS011;35517;45.272;9.984;2022-09-13T03:07:26;15.60;;;12.55;;
49614;SDS011;35517;45.272;9.984;2022-09-13T03:09:57;14.35;;;12.85;;
49614;SDS011;35517;45.272;9.984;2022-09-13T03:15:08;14.20;;;12.70;;
49614;SDS011;35517;45.272;9.984;2022-09-13T03:17:43;15.23;;;13.73;;
49614;SDS011;35517;45.272;9.984;2022-09-13T03:20:13;16.27;;;13.23;;
49614;SDS011;35517;45.272;9.984;2022-09-13T03:30:10;17.85;;;13.00;;
49614;SDS011;35517;45.272;9.984;2022-09-13T03:37:49;15.70;;;12.68;;
49614;SDS011;35517;45.272;9.984;2022-09-13T03:42:51;14.45;;;12.90;;
49614;SDS011;35517;45.272;9.984;2022-09-13T03:45:20;15.57;;;13.88;;
49614;SDS011;35517;45.272;9.984;2022-09-13T03:47:48;17.52;;;14.45;;
49614;SDS011;35517;45.272;9.984;2022-09-13T03:50:17;17.27;;;15.43;;
49614;SDS011;35517;45.272;9.984;2022-09-13T03:52:45;15.80;;;14.18;;
49614;SDS011;35517;45.272;9.984;2022-09-13T03:55:12;17.67;;;13.98;;
49614;SDS011;35517;45.272;9.984;2022-09-13T03:57:39;16.77;;;14.98;;
49614;SDS011;35517;45.272;9.984;2022-09-13T04:00:06;17.50;;;15.70;;
49614;SDS011;35517;45.272;9.984;2022-09-13T04:02:37;16.98;;;15.18;;
49614;SDS011;35517;45.272;9.984;2022-09-13T04:05:03;17.70;;;14.80;;
49614;SDS011;35517;45.272;9.984;2022-09-13T04:07:30;16.15;;;14.55;;
49614;SDS011;35517;45.272;9.984;2022-09-13T04:09:56;18.42;;;14.18;;
49614;SDS011;35517;45.272;9.984;2022-09-13T04:12:23;15.02;;;13.40;;
49614;SDS011;35517;45.272;9.984;2022-09-13T04:14:51;17.70;;;14.65;;
49614;SDS011;35517;45.272;9.984;2022-09-13T04:17:18;21.13;;;15.38;;
49614;SDS011;35517;45.272;9.984;2022-09-13T04:19:45;18.02;;;14.50;;
49614;SDS011;35517;45.272;9.984;2022-09-13T04:22:12;19.52;;;15.30;;
49614;SDS011;35517;45.272;9.984;2022-09-13T04:24:39;23.33;;;14.77;;
49614;SDS011;35517;45.272;9.984;2022-09-13T04:27:05;19.00;;;15.73;;
49614;SDS011;35517;45.272;9.984;2022-09-13T04:29:32;18.70;;;15.23;;
49614;SDS011;35517;45.272;9.984;2022-09-13T04:31:58;19.23;;;15.98;;
49614;SDS011;35517;45.272;9.984;2022-09-13T04:34:25;15.75;;;14.20;;
49614;SDS011;35517;45.272;9.984;2022-09-13T04:36:52;17.23;;;15.48;;
49614;SDS011;35517;45.272;9.984;2022-09-13T04:39:19;18.58;;;16.75;;
49614;SDS011;35517;45.272;9.984;2022-09-13T04:41:47;18.30;;;15.68;;
49614;SDS011;35517;45.272;9.984;2022-09-13T04:44:14;20.15;;;17.25;;
49614;SDS011;35517;45.272;9.984;2022-09-13T04:46:41;21.27;;;17.05;;
49614;SDS011;35517;45.272;9.984;2022-09-13T04:49:08;23.33;;;18.15;;
49614;SDS011;35517;45.272;9.984;2022-09-13T04:51:35;20.27;;;18.23;;
49614;SDS011;35517;45.272;9.984;2022-09-13T04:54:01;21.90;;;17.73;;
49614;SDS011;35517;45.272;9.984;2022-09-13T04:56:28;20.33;;;18.25;;
49614;SDS011;35517;45.272;9.984;2022-09-13T04:58:54;21.13;;;17.25;;
49614;SDS011;35517;45.272;9.984;2022-09-13T05:01:21;20.25;;;18.13;;
49614;SDS011;35517;45.272;9.984;2022-09-13T05:03:49;20.08;;;16.67;;
49614;SDS011;35517;45.272;9.984;2022-09-13T05:06:17;20.13;;;17.58;;
49614;SDS011;35517;45.272;9.984;2022-09-13T05:08:44;19.27;;;17.38;;
49614;SDS011;35517;45.272;9.984;2022-09-13T05:11:14;21.58;;;19.30;;
49614;SDS011;35517;45.272;9.984;2022-09-13T05:13:41;20.70;;;18.38;;
49614;SDS011;35517;45.272;9.984;2022-09-13T05:16:07;22.02;;;19.85;;
49614;SDS011;35517;45.272;9.984;2022-09-13T05:18:34;25.60;;;20.42;;
49614;SDS011;35517;45.272;9.984;2022-09-13T05:21:03;40.13;;;20.85;;
49614;SDS011;35517;45.272;9.984;2022-09-13T05:23:30;83.57;;;25.58;;
49614;SDS011;35517;45.272;9.984;2022-09-13T05:25:57;45.70;;;23.08;;
49614;SDS011;35517;45.272;9.984;2022-09-13T05:28:25;44.97;;;22.00;;
49614;SDS011;35517;45.272;9.984;2022-09-13T05:30:59;44.65;;;22.75;;
49614;SDS011;35517;45.272;9.984;2022-09-13T05:33:27;50.85;;;23.52;;
49614;SDS011;35517;45.272;9.984;2022-09-13T05:35:54;28.83;;;21.40;;
49614;SDS011;35517;45.272;9.984;2022-09-13T05:38:20;31.35;;;22.70;;
49614;SDS011;35517;45.272;9.984;2022-09-13T05:40:47;31.63;;;22.08;;
49614;SDS011;35517;45.272;9.984;2022-09-13T05:43:14;45.65;;;21.67;;
49614;SDS011;35517;45.272;9.984;2022-09-13T05:45:41;43.72;;;21.98;;
49614;SDS011;35517;45.272;9.984;2022-09-13T05:48:07;39.17;;;21.70;;
49614;SDS011;35517;45.272;9.984;2022-09-13T05:50:37;36.05;;;20.85;;
49614;SDS011;35517;45.272;9.984;2022-09-13T05:53:03;26.38;;;20.40;;
49614;SDS011;35517;45.272;9.984;2022-09-13T05:55:31;29.02;;;20.00;;
49614;SDS011;35517;45.272;9.984;2022-09-13T05:57:59;28.50;;;20.08;;
49614;SDS011;35517;45.272;9.984;2022-09-13T06:00:26;27.23;;;19.45;;
49614;SDS011;35517;45.272;9.984;2022-09-13T06:02:54;34.67;;;19.80;;
49614;SDS011;35517;45.272;9.984;2022-09-13T06:05:21;25.95;;;16.65;;
49614;SDS011;35517;45.272;9.984;2022-09-13T06:07:48;16.95;;;15.15;;
49614;SDS011;35517;45.272;9.984;2022-09-13T06:10:14;18.85;;;15.40;;
49614;SDS011;35517;45.272;9.984;2022-09-13T06:12:41;20.45;;;13.52;;
49614;SDS011;35517;45.272;9.984;2022-09-13T06:15:08;27.98;;;13.50;;
49614;SDS011;35517;45.272;9.984;2022-09-13T06:17:36;20.35;;;13.07;;
49614;SDS011;35517;45.272;9.984;2022-09-13T06:20:02;22.90;;;12.68;;
49614;SDS011;35517;45.272;9.984;2022-09-13T06:22:29;21.58;;;11.35;;
49614;SDS011;35517;45.272;9.984;2022-09-13T06:24:58;17.20;;;12.50;;
49614;SDS011;35517;45.272;9.984;2022-09-13T06:27:24;15.82;;;13.70;;
49614;SDS011;35517;45.272;9.984;2022-09-13T06:29:51;18.00;;;12.85;;
49614;SDS011;35517;45.272;9.984;2022-09-13T06:32:17;15.13;;;13.20;;
49614;SDS011;35517;45.272;9.984;2022-09-13T06:34:44;13.70;;;12.07;;
49614;SDS011;35517;45.272;9.984;2022-09-13T06:37:11;17.67;;;13.20;;
49614;SDS011;35517;45.272;9.984;2022-09-13T06:39:38;14.95;;;12.65;;
49614;SDS011;35517;45.272;9.984;2022-09-13T06:42:04;20.17;;;14.25;;
49614;SDS011;35517;45.272;9.984;2022-09-13T06:44:38;16.38;;;12.35;;
49614;SDS011;35517;45.272;9.984;2022-09-13T06:47:05;14.48;;;12.88;;
49614;SDS011;35517;45.272;9.984;2022-09-13T06:49:31;17.35;;;12.30;;
49614;SDS011;35517;45.272;9.984;2022-09-13T06:51:58;19.95;;;12.70;;
49614;SDS011;35517;45.272;9.984;2022-09-13T06:54:24;17.17;;;12.32;;
49614;SDS011;35517;45.272;9.984;2022-09-13T06:56:51;16.00;;;12.43;;
49614;SDS011;35517;45.272;9.984;2022-09-13T06:59:18;14.13;;;12.63;;
49614;SDS011;35517;45.272;9.984;2022-09-13T07:01:44;15.85;;;12.32;;
49614;SDS011;35517;45.272;9.984;2022-09-13T07:04:12;21.38;;;12.55;;
49614;SDS011;35517;45.272;9.984;2022-09-13T07:06:41;17.15;;;11.55;;
49614;SDS011;35517;45.272;9.984;2022-09-13T07:09:10;18.55;;;12.00;;
49614;SDS011;35517;45.272;9.984;2022-09-13T07:11:38;19.20;;;11.95;;
49614;SDS011;35517;45.272;9.984;2022-09-13T07:14:05;20.50;;;12.05;;
49614;SDS011;35517;45.272;9.984;2022-09-13T07:16:33;17.85;;;11.80;;
49614;SDS011;35517;45.272;9.984;2022-09-13T07:19:01;20.65;;;11.95;;
49614;SDS011;35517;45.272;9.984;2022-09-13T07:21:31;20.00;;;11.63;;
49614;SDS011;35517;45.272;9.984;2022-09-13T07:23:58;16.08;;;9.10;;
49614;SDS011;35517;45.272;9.984;2022-09-13T07:26:25;12.32;;;8.82;;
49614;SDS011;35517;45.272;9.984;2022-09-13T07:28:53;8.27;;;7.32;;
49614;SDS011;35517;45.272;9.984;2022-09-13T07:31:28;10.10;;;7.95;;
49614;SDS011;35517;45.272;9.984;2022-09-13T07:33:56;20.50;;;8.98;;
49614;SDS011;35517;45.272;9.984;2022-09-13T07:36:23;12.27;;;7.32;;
49614;SDS011;35517;45.272;9.984;2022-09-13T07:38:50;9.55;;;6.93;;
49614;SDS011;35517;45.272;9.984;2022-09-13T07:41:18;8.52;;;6.43;;
49614;SDS011;35517;45.272;9.984;2022-09-13T07:43:45;9.48;;;7.13;;
49614;SDS011;35517;45.272;9.984;2022-09-13T07:46:16;7.55;;;5.50;;
49614;SDS011;35517;45.272;9.984;2022-09-13T07:48:43;8.82;;;6.10;;
49614;SDS011;35517;45.272;9.984;2022-09-13T07:51:17;8.57;;;5.97;;
49614;SDS011;35517;45.272;9.984;2022-09-13T07:53:45;10.55;;;5.72;;
49614;SDS011;35517;45.272;9.984;2022-09-13T07:56:16;6.55;;;5.95;;
49614;SDS011;35517;45.272;9.984;2022-09-13T07:58:43;7.10;;;6.38;;
49614;SDS011;35517;45.272;9.984;2022-09-13T08:03:37;8.88;;;5.32;;
49614;SDS011;35517;45.272;9.984;2022-09-13T08:06:03;5.80;;;5.07;;
49614;SDS011;35517;45.272;9.984;2022-09-13T08:08:31;6.38;;;4.95;;
49614;SDS011;35517;45.272;9.984;2022-09-13T08:10:58;6.32;;;5.32;;
49614;SDS011;35517;45.272;9.984;2022-09-13T08:13:24;6.78;;;5.63;;
49614;SDS011;35517;45.272;9.984;2022-09-13T08:15:51;7.28;;;5.97;;
49614;SDS011;35517;45.272;9.984;2022-09-13T08:18:18;5.68;;;4.90;;
49614;SDS011;35517;45.272;9.984;2022-09-13T08:20:44;9.63;;;4.93;;
49614;SDS011;35517;45.272;9.984;2022-09-13T08:23:11;5.63;;;5.13;;
49614;SDS011;35517;45.272;9.984;2022-09-13T08:25:38;8.40;;;5.88;;
49614;SDS011;35517;45.272;9.984;2022-09-13T08:28:09;8.65;;;5.68;;
49614;SDS011;35517;45.272;9.984;2022-09-13T08:30:38;9.10;;;5.15;;
49614;SDS011;35517;45.272;9.984;2022-09-13T08:33:06;6.85;;;5.40;;
49614;SDS011;35517;45.272;9.984;2022-09-13T08:35:33;12.02;;;4.85;;
49614;SDS011;35517;45.272;9.984;2022-09-13T08:38:00;10.98;;;4.60;;
49614;SDS011;35517;45.272;9.984;2022-09-13T08:40:30;4.55;;;3.80;;
49614;SDS011;35517;45.272;9.984;2022-09-13T08:45:55;8.32;;;4.20;;
49614;SDS011;35517;45.272;9.984;2022-09-13T08:48:27;9.40;;;3.30;;
49614;SDS011;35517;45.272;9.984;2022-09-13T08:50:57;4.18;;;3.70;;
49614;SDS011;35517;45.272;9.984;2022-09-13T08:53:28;4.97;;;3.60;;
49614;SDS011;35517;45.272;9.984;2022-09-13T09:01:00;3.13;;;2.35;;
49614;SDS011;35517;45.272;9.984;2022-09-13T09:03:41;2.25;;;2.00;;
49614;SDS011;35517;45.272;9.984;2022-09-13T09:06:14;5.57;;;2.40;;
49614;SDS011;35517;45.272;9.984;2022-09-13T09:08:43;2.22;;;1.95;;
49614;SDS011;35517;45.272;9.984;2022-09-13T09:11:29;6.40;;;2.80;;
49614;SDS011;35517;45.272;9.984;2022-09-13T09:13:58;8.15;;;2.85;;
49614;SDS011;35517;45.272;9.984;2022-09-13T09:16:50;4.45;;;2.15;;
49614;SDS011;35517;45.272;9.984;2022-09-13T09:19:19;5.68;;;2.88;;
49614;SDS011;35517;45.272;9.984;2022-09-13T09:21:48;5.80;;;2.67;;
49614;SDS011;35517;45.272;9.984;2022-09-13T09:24:17;11.25;;;3.13;;
49614;SDS011;35517;45.272;9.984;2022-09-13T09:26:44;4.50;;;2.40;;
49614;SDS011;35517;45.272;9.984;2022-09-13T09:29:15;4.38;;;2.28;;
49614;SDS011;35517;45.272;9.984;2022-09-13T09:39:42;10.13;;;2.53;;
49614;SDS011;35517;45.272;9.984;2022-09-13T09:42:16;3.05;;;2.22;;
49614;SDS011;35517;45.272;9.984;2022-09-13T09:44:45;4.10;;;2.20;;
49614;SDS011;35517;45.272;9.984;2022-09-13T09:47:18;5.20;;;2.45;;
49614;SDS011;35517;45.272;9.984;2022-09-13T09:49:46;6.65;;;2.40;;
49614;SDS011;35517;45.272;9.984;2022-09-13T09:52:34;9.00;;;2.38;;
49614;SDS011;35517;45.272;9.984;2022-09-13T10:00:22;3.47;;;1.85;;
49614;SDS011;35517;45.272;9.984;2022-09-13T10:02:50;5.72;;;2.17;;
49614;SDS011;35517;45.272;9.984;2022-09-13T10:05:18;5.25;;;2.95;;
49614;SDS011;35517;45.272;9.984;2022-09-13T10:08:06;6.82;;;2.60;;
49614;SDS011;35517;45.272;9.984;2022-09-13T10:10:38;5.60;;;2.13;;
49614;SDS011;35517;45.272;9.984;2022-09-13T10:13:15;4.25;;;2.35;;
49614;SDS011;35517;45.272;9.984;2022-09-13T10:18:19;6.43;;;2.42;;
49614;SDS011;35517;45.272;9.984;2022-09-13T10:21:00;6.13;;;2.35;;
49614;SDS011;35517;45.272;9.984;2022-09-13T10:23:27;5.53;;;2.17;;
49614;SDS011;35517;45.272;9.984;2022-09-13T10:25:58;14.15;;;2.50;;
49614;SDS011;35517;45.272;9.984;2022-09-13T10:28:27;6.45;;;2.47;;
49614;SDS011;35517;45.272;9.984;2022-09-13T10:30:56;9.88;;;3.20;;
49614;SDS011;35517;45.272;9.984;2022-09-13T10:35:58;4.07;;;2.30;;
49614;SDS011;35517;45.272;9.984;2022-09-13T10:38:36;5.18;;;3.45;;
49614;SDS011;35517;45.272;9.984;2022-09-13T10:41:07;3.90;;;2.45;;
49614;SDS011;35517;45.272;9.984;2022-09-13T10:43:34;8.90;;;2.50;;
49614;SDS011;35517;45.272;9.984;2022-09-13T10:46:02;9.88;;;3.22;;
49614;SDS011;35517;45.272;9.984;2022-09-13T10:48:29;4.35;;;3.03;;
49614;SDS011;35517;45.272;9.984;2022-09-13T10:51:04;12.27;;;3.25;;
49614;SDS011;35517;45.272;9.984;2022-09-13T10:53:36;5.30;;;2.50;;
49614;SDS011;35517;45.272;9.984;2022-09-13T10:56:03;6.47;;;3.30;;
49614;SDS011;35517;45.272;9.984;2022-09-13T10:58:29;4.53;;;2.75;;
49614;SDS011;35517;45.272;9.984;2022-09-13T11:05:53;4.63;;;2.83;;
49614;SDS011;35517;45.272;9.984;2022-09-13T11:08:29;11.55;;;4.30;;
49614;SDS011;35517;45.272;9.984;2022-09-13T11:11:09;4.20;;;3.10;;
49614;SDS011;35517;45.272;9.984;2022-09-13T11:16:15;6.80;;;3.92;;
49614;SDS011;35517;45.272;9.984;2022-09-13T11:27:13;5.65;;;3.95;;
49614;SDS011;35517;45.272;9.984;2022-09-13T11:40:21;10.80;;;3.50;;
49614;SDS011;35517;45.272;9.984;2022-09-13T11:45:30;8.75;;;4.13;;
49614;SDS011;35517;45.272;9.984;2022-09-13T11:50:32;5.45;;;3.53;;
49614;SDS011;35517;45.272;9.984;2022-09-13T11:55:33;8.15;;;3.42;;
49614;SDS011;35517;45.272;9.984;2022-09-13T11:58:01;11.77;;;4.53;;
49614;SDS011;35517;45.272;9.984;2022-09-13T12:00:46;6.88;;;3.20;;
49614;SDS011;35517;45.272;9.984;2022-09-13T12:06:02;8.45;;;4.68;;
49614;SDS011;35517;45.272;9.984;2022-09-13T12:08:31;12.57;;;3.90;;
49614;SDS011;35517;45.272;9.984;2022-09-13T12:11:10;7.68;;;4.82;;
49614;SDS011;35517;45.272;9.984;2022-09-13T12:16:26;12.52;;;5.03;;
49614;SDS011;35517;45.272;9.984;2022-09-13T12:18:57;11.27;;;4.78;;
49614;SDS011;35517;45.272;9.984;2022-09-13T12:21:26;9.30;;;4.50;;
49614;SDS011;35517;45.272;9.984;2022-09-13T12:24:05;8.38;;;4.30;;
49614;SDS011;35517;45.272;9.984;2022-09-13T12:32:05;9.63;;;3.40;;
49614;SDS011;35517;45.272;9.984;2022-09-13T12:34:42;8.27;;;3.15;;
49614;SDS011;35517;45.272;9.984;2022-09-13T12:58:16;4.80;;;3.70;;
49614;SDS011;35517;45.272;9.984;2022-09-13T13:03:28;10.32;;;3.85;;
49614;SDS011;35517;45.272;9.984;2022-09-13T13:06:05;6.68;;;2.75;;
49614;SDS011;35517;45.272;9.984;2022-09-13T13:08:33;13.55;;;2.97;;
49614;SDS011;35517;45.272;9.984;2022-09-13T13:11:01;10.07;;;3.13;;
49614;SDS011;35517;45.272;9.984;2022-09-13T13:13:38;5.30;;;3.45;;
49614;SDS011;35517;45.272;9.984;2022-09-13T13:18:48;8.23;;;2.83;;
49614;SDS011;35517;45.272;9.984;2022-09-13T13:29:15;5.95;;;2.75;;
49614;SDS011;35517;45.272;9.984;2022-09-13T13:31:43;6.93;;;2.28;;
49614;SDS011;35517;45.272;9.984;2022-09-13T13:39:11;6.25;;;2.47;;
49614;SDS011;35517;45.272;9.984;2022-09-13T13:41:41;7.25;;;1.58;;
49614;SDS011;35517;45.272;9.984;2022-09-13T13:46:45;6.22;;;2.38;;
49614;SDS011;35517;45.272;9.984;2022-09-13T13:57:27;8.18;;;1.80;;
49614;SDS011;35517;45.272;9.984;2022-09-13T14:08:31;10.52;;;2.38;;
49614;SDS011;35517;45.272;9.984;2022-09-13T14:21:03;12.10;;;2.28;;
49614;SDS011;35517;45.272;9.984;2022-09-13T14:23:30;13.13;;;2.38;;
49614;SDS011;35517;45.272;9.984;2022-09-13T14:25:58;9.48;;;2.83;;
49614;SDS011;35517;45.272;9.984;2022-09-13T14:28:25;14.23;;;2.30;;
49614;SDS011;35517;45.272;9.984;2022-09-13T14:30:56;9.23;;;2.55;;
49614;SDS011;35517;45.272;9.984;2022-09-13T14:36:00;6.72;;;1.75;;
49614;SDS011;35517;45.272;9.984;2022-09-13T14:38:28;9.68;;;1.80;;
49614;SDS011;35517;45.272;9.984;2022-09-13T14:41:01;9.52;;;2.58;;
49614;SDS011;35517;45.272;9.984;2022-09-13T14:43:28;7.32;;;2.72;;
49614;SDS011;35517;45.272;9.984;2022-09-13T14:48:27;8.82;;;2.60;;
49614;SDS011;35517;45.272;9.984;2022-09-13T14:51:00;9.07;;;1.88;;
49614;SDS011;35517;45.272;9.984;2022-09-13T14:53:29;5.28;;;2.10;;
49614;SDS011;35517;45.272;9.984;2022-09-13T14:56:07;14.05;;;3.08;;
49614;SDS011;35517;45.272;9.984;2022-09-13T15:01:07;12.60;;;1.80;;
49614;SDS011;35517;45.272;9.984;2022-09-13T15:03:34;4.63;;;1.77;;
49614;SDS011;35517;45.272;9.984;2022-09-13T15:06:02;5.10;;;2.22;;
49614;SDS011;35517;45.272;9.984;2022-09-13T15:11:00;6.60;;;2.25;;
49614;SDS011;35517;45.272;9.984;2022-09-13T15:13:26;9.48;;;2.53;;
49614;SDS011;35517;45.272;9.984;2022-09-13T15:15:53;6.80;;;2.70;;
49614;SDS011;35517;45.272;9.984;2022-09-13T15:18:22;7.07;;;2.78;;
49614;SDS011;35517;45.272;9.984;2022-09-13T15:20:52;7.97;;;2.40;;
49614;SDS011;35517;45.272;9.984;2022-09-13T15:23:28;8.73;;;2.53;;
49614;SDS011;35517;45.272;9.984;2022-09-13T15:31:32;6.63;;;3.25;;
49614;SDS011;35517;45.272;9.984;2022-09-13T15:36:42;13.88;;;3.28;;
49614;SDS011;35517;45.272;9.984;2022-09-13T15:39:16;18.67;;;3.85;;
49614;SDS011;35517;45.272;9.984;2022-09-13T15:41:56;10.50;;;3.65;;
49614;SDS011;35517;45.272;9.984;2022-09-13T15:44:24;16.10;;;4.35;;
49614;SDS011;35517;45.272;9.984;2022-09-13T15:46:51;13.15;;;4.32;;
49614;SDS011;35517;45.272;9.984;2022-09-13T15:49:19;14.20;;;4.78;;
49614;SDS011;35517;45.272;9.984;2022-09-13T15:51:47;17.83;;;4.13;;
49614;SDS011;35517;45.272;9.984;2022-09-13T15:54:18;22.95;;;6.00;;
49614;SDS011;35517;45.272;9.984;2022-09-13T15:56:47;8.73;;;4.20;;
49614;SDS011;35517;45.272;9.984;2022-09-13T15:59:17;10.07;;;5.07;;
49614;SDS011;35517;45.272;9.984;2022-09-13T16:01:44;11.80;;;5.82;;
49614;SDS011;35517;45.272;9.984;2022-09-13T16:04:12;23.05;;;5.68;;
49614;SDS011;35517;45.272;9.984;2022-09-13T16:06:39;10.90;;;5.05;;
49614;SDS011;35517;45.272;9.984;2022-09-13T16:09:19;9.98;;;4.65;;
49614;SDS011;35517;45.272;9.984;2022-09-13T16:11:46;11.57;;;4.00;;
49614;SDS011;35517;45.272;9.984;2022-09-13T16:14:13;20.50;;;4.72;;
49614;SDS011;35517;45.272;9.984;2022-09-13T16:16:41;9.93;;;4.50;;
49614;SDS011;35517;45.272;9.984;2022-09-13T16:19:14;11.07;;;4.50;;
49614;SDS011;35517;45.272;9.984;2022-09-13T16:21:41;17.20;;;4.30;;
49614;SDS011;35517;45.272;9.984;2022-09-13T16:24:08;9.07;;;3.53;;
49614;SDS011;35517;45.272;9.984;2022-09-13T16:26:34;14.02;;;3.25;;
49614;SDS011;35517;45.272;9.984;2022-09-13T16:29:01;27.25;;;4.65;;
49614;SDS011;35517;45.272;9.984;2022-09-13T16:31:28;8.73;;;3.90;;
49614;SDS011;35517;45.272;9.984;2022-09-13T16:33:55;6.90;;;4.13;;
49614;SDS011;35517;45.272;9.984;2022-09-13T16:36:22;14.38;;;4.05;;
49614;SDS011;35517;45.272;9.984;2022-09-13T16:38:48;11.40;;;4.03;;
49614;SDS011;35517;45.272;9.984;2022-09-13T16:41:15;8.52;;;3.72;;
49614;SDS011;35517;45.272;9.984;2022-09-13T16:43:41;8.88;;;3.67;;
49614;SDS011;35517;45.272;9.984;2022-09-13T16:46:08;12.45;;;4.47;;
49614;SDS011;35517;45.272;9.984;2022-09-13T16:48:35;11.13;;;4.20;;
49614;SDS011;35517;45.272;9.984;2022-09-13T16:51:03;18.88;;;4.18;;
49614;SDS011;35517;45.272;9.984;2022-09-13T16:53:33;13.15;;;4.68;;
49614;SDS011;35517;45.272;9.984;2022-09-13T16:56:06;14.05;;;4.18;;
49614;SDS011;35517;45.272;9.984;2022-09-13T16:58:37;14.32;;;3.85;;
49614;SDS011;35517;45.272;9.984;2022-09-13T17:01:04;16.77;;;4.03;;
49614;SDS011;35517;45.272;9.984;2022-09-13T17:03:31;11.35;;;4.32;;
49614;SDS011;35517;45.272;9.984;2022-09-13T17:06:01;13.98;;;4.40;;
49614;SDS011;35517;45.272;9.984;2022-09-13T17:08:28;7.13;;;4.20;;
49614;SDS011;35517;45.272;9.984;2022-09-13T17:10:54;14.57;;;4.13;;
49614;SDS011;35517;45.272;9.984;2022-09-13T17:13:21;15.13;;;5.07;;
49614;SDS011;35517;45.272;9.984;2022-09-13T17:15:48;13.85;;;5.10;;
49614;SDS011;35517;45.272;9.984;2022-09-13T17:18:15;17.45;;;5.32;;
49614;SDS011;35517;45.272;9.984;2022-09-13T17:20:43;15.00;;;6.80;;
49614;SDS011;35517;45.272;9.984;2022-09-13T17:23:10;11.60;;;6.35;;
49614;SDS011;35517;45.272;9.984;2022-09-13T17:25:36;14.82;;;6.03;;
49614;SDS011;35517;45.272;9.984;2022-09-13T17:28:05;12.80;;;6.63;;
49614;SDS011;35517;45.272;9.984;2022-09-13T17:30:32;23.35;;;6.68;;
49614;SDS011;35517;45.272;9.984;2022-09-13T17:32:58;11.32;;;5.85;;
49614;SDS011;35517;45.272;9.984;2022-09-13T17:35:25;11.27;;;6.60;;
49614;SDS011;35517;45.272;9.984;2022-09-13T17:37:54;16.20;;;6.63;;
49614;SDS011;35517;45.272;9.984;2022-09-13T17:40:20;14.10;;;6.10;;
49614;SDS011;35517;45.272;9.984;2022-09-13T17:42:47;41.80;;;7.05;;
49614;SDS011;35517;45.272;9.984;2022-09-13T17:45:14;21.08;;;7.38;;
49614;SDS011;35517;45.272;9.984;2022-09-13T17:47:41;46.83;;;7.70;;
49614;SDS011;35517;45.272;9.984;2022-09-13T17:50:07;17.98;;;7.60;;
49614;SDS011;35517;45.272;9.984;2022-09-13T17:52:34;18.95;;;7.07;;
49614;SDS011;35517;45.272;9.984;2022-09-13T17:55:01;27.83;;;7.05;;
49614;SDS011;35517;45.272;9.984;2022-09-13T17:57:29;18.30;;;6.65;;
49614;SDS011;35517;45.272;9.984;2022-09-13T17:59:56;19.65;;;6.78;;
49614;SDS011;35517;45.272;9.984;2022-09-13T18:02:24;34.45;;;7.78;;
49614;SDS011;35517;45.272;9.984;2022-09-13T18:04:52;25.48;;;7.57;;
49614;SDS011;35517;45.272;9.984;2022-09-13T18:07:19;19.98;;;6.30;;
49614;SDS011;35517;45.272;9.984;2022-09-13T18:09:45;22.88;;;7.43;;
49614;SDS011;35517;45.272;9.984;2022-09-13T18:12:12;22.52;;;7.43;;
49614;SDS011;35517;45.272;9.984;2022-09-13T18:14:38;28.10;;;8.55;;
49614;SDS011;35517;45.272;9.984;2022-09-13T18:17:06;19.58;;;9.48;;
49614;SDS011;35517;45.272;9.984;2022-09-13T18:22:05;29.60;;;10.38;;
49614;SDS011;35517;45.272;9.984;2022-09-13T18:24:31;20.00;;;10.07;;
49614;SDS011;35517;45.272;9.984;2022-09-13T18:26:58;28.35;;;10.90;;
49614;SDS011;35517;45.272;9.984;2022-09-13T18:29:25;18.13;;;9.77;;